Time;durP1;ratioP1;P1;durP2;ratioP2;P2;SDS_P1;SDS_P2;PMS_P1;PMS_P2;Temp;Humidity;BMP_temperature;BMP_pressure;BME280_temperature;BME280_humidity;BME280_pressure;Samples;Min_cycle;Max_cycle;Signal;HPM_P1;HPM_P2
2021/04/15 00:01:17;;;;;;;;;;;;;;;13.85;34.38;100519.84;4410231;32;33388;-92
2021/04/15 00:03:45;;;;;;;;;;;;;;;13.96;34.07;100520.38;4397736;32;33463;-92
2021/04/15 00:06:17;;;;;;;;;;;;;;;13.90;34.24;100520.53;4387086;32;32382;-92
2021/04/15 00:08:46;;;;;;;;;;;;;;;14.06;33.89;100518.28;4412104;32;32742;-92
2021/04/15 00:11:14;;;;;;;;;;;;;;;13.83;34.46;100512.03;4387134;32;33135;-92
2021/04/15 00:13:44;;;;;;;;;;;;;;;14.22;33.69;100516.00;4387266;32;33117;-92
2021/04/15 00:16:13;;;;;;;;;;;;;;;13.74;34.68;100508.88;4387540;32;31726;-92
2021/04/15 00:18:41;;;;;;;;;;;;;;;13.55;35.01;100516.41;4387304;32;33314;-92
2021/04/15 00:21:10;;;;;;;;;;;;;;;13.82;34.33;100504.22;4392958;32;33077;-92
2021/04/15 00:23:37;;;;;;;;;;;;;;;14.13;33.93;100505.84;4393129;32;32948;-92
2021/04/15 00:26:06;;;;;;;;;;;;;;;14.23;33.80;100507.25;4405628;32;33149;-92
2021/04/15 00:28:33;;;;;;;;;;;;;;;13.98;33.96;100502.81;4405543;32;33294;-93
2021/04/15 00:31:02;;;;;;;;;;;;;;;13.80;34.57;100503.41;4391096;32;33433;-92
2021/04/15 00:33:31;;;;;;;;;;;;;;;13.87;34.33;100502.31;4386845;32;32577;-93
2021/04/15 00:35:59;;;;;;;;;;;;;;;14.08;34.24;100503.38;4387107;32;31934;-92
2021/04/15 00:38:35;;;;;;;;;;;;;;;14.02;34.17;100499.19;4388732;32;33284;-93
2021/04/15 00:41:03;;;;;;;;;;;;;;;14.10;33.95;100501.56;4387074;32;32946;-92
2021/04/15 00:43:32;;;;;;;;;;;;;;;13.48;35.36;100506.16;4390775;32;33708;-92
2021/04/15 00:46:01;;;;;;;;;;;;;;;13.74;34.80;100501.84;4403276;32;32315;-92
2021/04/15 00:48:36;;;;;;;;;;;;;;;13.87;34.59;100507.56;4387402;32;34210;-92
2021/04/15 00:51:04;;;;;;;;;;;;;;;14.24;34.03;100498.47;4387086;32;33556;-92
2021/04/15 00:53:34;;;;;;;;;;;;;;;13.81;34.84;100506.00;4399590;32;33450;-91
2021/04/15 00:56:01;;;;;;;;;;;;;;;13.90;34.79;100514.47;4399713;32;31767;-92
2021/04/15 00:58:29;;;;;;;;;;;;;;;13.70;35.11;100508.94;4389932;32;32774;-93
2021/04/15 01:00:59;;;;;;;;;;;;;;;13.58;35.34;100513.72;4392784;32;33151;-93
2021/04/15 01:03:26;;;;;;;;;;;;;;;13.55;35.48;100513.81;4392613;32;32816;-92
2021/04/15 01:05:55;;;;;;;;;;;;;;;13.47;35.85;100511.44;4402584;32;31962;-92
2021/04/15 01:08:23;;;;;;;;;;;;;;;13.55;35.75;100505.94;4388187;32;32831;-93
2021/04/15 01:10:56;;;;;;;;;;;;;;;13.29;36.12;100510.19;4387375;32;32852;-92
2021/04/15 01:13:46;;;;;;;;;;;;;;;13.95;34.85;100507.31;4387040;32;33792;-92
2021/04/15 01:16:16;;;;;;;;;;;;;;;13.50;35.68;100501.72;4411439;32;32761;-92
2021/04/15 01:18:55;;;;;;;;;;;;;;;13.91;34.90;100503.09;4386302;32;32462;-92
2021/04/15 01:21:32;;;;;;;;;;;;;;;13.88;35.05;100509.28;4386707;32;32969;-93
2021/04/15 01:23:59;;;;;;;;;;;;;;;13.50;35.89;100506.09;4386814;32;32748;-92
2021/04/15 01:26:35;;;;;;;;;;;;;;;13.39;36.08;100498.59;4399017;32;31898;-92
2021/04/15 01:29:23;;;;;;;;;;;;;;;13.44;36.00;100504.53;4411441;32;33048;-92
2021/04/15 01:32:09;;;;;;;;;;;;;;;13.38;36.05;100502.09;4376347;32;34083;-92
2021/04/15 01:34:41;;;;;;;;;;;;;;;14.06;34.70;100494.69;4398841;32;32854;-92
2021/04/15 01:37:21;;;;;;;;;;;;;;;13.50;35.91;100493.84;4386587;32;32205;-92
2021/04/15 01:39:52;;;;;;;;;;;;;;;13.88;35.09;100490.06;4386190;32;33530;-93
2021/04/15 01:42:21;;;;;;;;;;;;;;;13.63;35.49;100483.03;4399013;32;34489;-92
2021/04/15 01:44:48;;;;;;;;;;;;;;;13.38;36.11;100486.41;4387681;32;32320;-92
2021/04/15 01:47:19;;;;;;;;;;;;;;;13.31;36.26;100485.69;4401071;32;32128;-92
2021/04/15 01:49:47;;;;;;;;;;;;;;;13.35;36.27;100483.84;4385995;32;33122;-92
2021/04/15 01:52:15;;;;;;;;;;;;;;;13.65;35.71;100478.56;4398491;32;32906;-92
2021/04/15 01:54:45;;;;;;;;;;;;;;;13.43;36.01;100484.50;4397600;32;33527;-93
2021/04/15 01:57:27;;;;;;;;;;;;;;;13.57;35.81;100475.34;4386146;32;33886;-92
2021/04/15 01:59:55;;;;;;;;;;;;;;;13.23;36.66;100478.97;4398445;32;32975;-93
2021/04/15 02:02:24;;;;;;;;;;;;;;;13.38;36.35;100485.56;4411184;32;35704;-92
2021/04/15 02:04:57;;;;;;;;;;;;;;;13.22;36.54;100480.75;4386176;32;32445;-92
2021/04/15 02:07:25;;;;;;;;;;;;;;;13.86;35.42;100483.12;4386287;32;32076;-92
2021/04/15 02:09:53;;;;;;;;;;;;;;;13.75;35.67;100481.75;4385974;32;32939;-92
2021/04/15 02:12:28;;;;;;;;;;;;;;;13.96;35.32;100482.81;4385589;32;32850;-93
2021/04/15 02:15:00;;;;;;;;;;;;;;;13.51;35.83;100477.25;4386140;32;33126;-93
2021/04/15 02:17:30;;;;;;;;;;;;;;;13.02;37.18;100487.41;4398586;32;33862;-93
2021/04/15 02:19:58;;;;;;;;;;;;;;;13.66;35.78;100477.69;4385551;32;33147;-93
2021/04/15 02:22:32;;;;;;;;;;;;;;;13.48;36.07;100484.34;4398080;32;34059;-93
2021/04/15 02:25:19;;;;;;;;;;;;;;;13.79;35.40;100481.63;4398419;32;33032;-92
2021/04/15 02:27:59;;;;;;;;;;;;;;;13.60;35.91;100478.75;4386116;32;32667;-92
2021/04/15 02:30:39;;;;;;;;;;;;;;;13.12;36.63;100479.28;4398220;32;32957;-92
2021/04/15 02:33:13;;;;;;;;;;;;;;;13.49;36.13;100471.19;4398544;32;33004;-92
2021/04/15 02:35:40;;;;;;;;;;;;;;;13.26;36.63;100479.75;4386398;32;33189;-92
2021/04/15 02:38:08;;;;;;;;;;;;;;;13.45;36.32;100479.22;4398349;32;31949;-92
2021/04/15 02:40:40;;;;;;;;;;;;;;;14.34;34.69;100478.88;4398787;32;34532;-92
2021/04/15 02:43:10;;;;;;;;;;;;;;;13.88;35.40;100480.47;4385908;32;33857;-92
2021/04/15 02:45:40;;;;;;;;;;;;;;;13.70;35.92;100474.91;4386533;32;32844;-92
2021/04/15 02:48:14;;;;;;;;;;;;;;;13.75;35.70;100481.75;4386503;32;33527;-91
2021/04/15 02:50:42;;;;;;;;;;;;;;;13.58;36.17;100487.53;4413237;32;34733;-93
2021/04/15 02:53:18;;;;;;;;;;;;;;;13.39;36.32;100485.50;4402165;32;32697;-92
2021/04/15 02:55:53;;;;;;;;;;;;;;;13.73;35.76;100480.94;4389930;32;33457;-92
2021/04/15 02:58:21;;;;;;;;;;;;;;;13.50;36.15;100482.53;4390510;32;33010;-92
2021/04/15 03:00:49;;;;;;;;;;;;;;;13.63;36.06;100480.41;4401820;32;32760;-93
2021/04/15 03:03:18;;;;;;;;;;;;;;;13.47;36.27;100485.28;4398609;32;32842;-92
2021/04/15 03:05:46;;;;;;;;;;;;;;;13.94;35.49;100480.25;4398930;32;32440;-92
2021/04/15 03:08:16;;;;;;;;;;;;;;;14.07;35.22;100483.31;4388300;32;32001;-92
2021/04/15 03:10:45;;;;;;;;;;;;;;;13.64;36.04;100482.97;4388075;32;33056;-92
2021/04/15 03:13:17;;;;;;;;;;;;;;;13.85;35.64;100478.81;4413093;32;32834;-92
2021/04/15 03:15:46;;;;;;;;;;;;;;;13.11;36.89;100488.91;4388004;32;32894;-92
2021/04/15 03:18:18;;;;;;;;;;;;;;;13.73;35.90;100487.03;4388032;32;32008;-92
2021/04/15 03:20:51;;;;;;;;;;;;;;;13.89;35.67;100491.78;4400291;32;32802;-92
2021/04/15 03:23:22;;;;;;;;;;;;;;;13.62;36.24;100490.00;4399763;32;34676;-92
2021/04/15 03:25:50;;;;;;;;;;;;;;;13.21;36.82;100484.25;4412013;32;32916;-92
2021/04/15 03:28:18;;;;;;;;;;;;;;;13.51;36.52;100481.66;4400019;32;33486;-92
2021/04/15 03:30:46;;;;;;;;;;;;;;;13.31;36.94;100487.47;4400098;32;34083;-93
2021/04/15 03:33:19;;;;;;;;;;;;;;;13.23;37.02;100486.81;4399684;32;32866;-92
2021/04/15 03:36:06;;;;;;;;;;;;;;;13.22;37.08;100488.59;4399681;32;32602;-92
2021/04/15 03:38:38;;;;;;;;;;;;;;;12.98;37.43;100483.16;4399654;32;31985;-91
2021/04/15 03:41:15;;;;;;;;;;;;;;;13.32;36.93;100484.78;4399958;32;33280;-92
2021/04/15 03:43:56;;;;;;;;;;;;;;;13.34;36.93;100485.59;4399680;32;34302;-91
2021/04/15 03:46:30;;;;;;;;;;;;;;;13.53;36.31;100479.81;4387642;32;33559;-92
2021/04/15 03:49:03;;;;;;;;;;;;;;;13.19;37.25;100486.91;4387826;32;32222;-92
2021/04/15 03:51:35;;;;;;;;;;;;;;;13.16;37.33;100478.28;4394264;32;33097;-92
2021/04/15 03:54:04;;;;;;;;;;;;;;;13.58;36.21;100488.37;4392944;32;33046;-92
2021/04/15 03:56:34;;;;;;;;;;;;;;;13.46;36.59;100479.16;4391656;32;32883;-92
2021/04/15 03:59:10;;;;;;;;;;;;;;;13.35;36.69;100487.31;4389115;32;32169;-94
2021/04/15 04:01:44;;;;;;;;;;;;;;;12.97;37.44;100486.69;4389700;32;32846;-92
2021/04/15 04:04:12;;;;;;;;;;;;;;;13.25;36.81;100488.47;4401566;32;35003;-92
2021/04/15 04:06:41;;;;;;;;;;;;;;;13.38;36.54;100486.41;4400107;32;32958;-92
2021/04/15 04:09:14;;;;;;;;;;;;;;;13.18;37.04;100489.59;4400602;32;32122;-92
2021/04/15 04:11:43;;;;;;;;;;;;;;;12.81;37.69;100493.25;4375528;32;33355;-92
2021/04/15 04:14:15;;;;;;;;;;;;;;;13.09;37.31;100492.47;4400611;32;33959;-92
2021/04/15 04:16:49;;;;;;;;;;;;;;;12.91;37.67;100493.84;4389405;32;32647;-92
2021/04/15 04:19:19;;;;;;;;;;;;;;;13.14;37.15;100490.59;4390238;32;32528;-91
2021/04/15 04:22:06;;;;;;;;;;;;;;;13.39;36.68;100492.47;4401854;32;34208;-92
2021/04/15 04:24:49;;;;;;;;;;;;;;;12.47;38.34;100491.56;4387744;32;33224;-92
2021/04/15 04:27:21;;;;;;;;;;;;;;;12.76;37.85;100503.00;4388537;32;33138;-92
2021/04/15 04:29:50;;;;;;;;;;;;;;;13.21;36.69;100499.94;4390678;32;32888;-92
2021/04/15 04:32:21;;;;;;;;;;;;;;;13.27;36.72;100499.78;4393169;32;33033;-92
2021/04/15 04:34:55;;;;;;;;;;;;;;;13.50;36.39;100506.09;4393301;32;34130;-93
2021/04/15 04:37:43;;;;;;;;;;;;;;;12.95;37.15;100504.19;4392380;32;32736;-92
2021/04/15 04:40:14;;;;;;;;;;;;;;;13.23;36.91;100499.91;4402098;32;31687;-93
2021/04/15 04:42:46;;;;;;;;;;;;;;;13.32;36.64;100505.72;4387882;32;33231;-92
2021/04/15 04:45:16;;;;;;;;;;;;;;;13.25;36.76;100504.19;4389021;32;33398;-92
2021/04/15 04:47:50;;;;;;;;;;;;;;;13.14;37.06;100506.28;4388306;32;33423;-93
2021/04/15 04:50:36;;;;;;;;;;;;;;;13.28;36.83;100506.72;4398353;32;32099;-93
2021/04/15 04:53:05;;;;;;;;;;;;;;;13.75;35.91;100507.94;4399366;32;33334;-93
2021/04/15 04:55:38;;;;;;;;;;;;;;;13.18;36.84;100515.75;4400041;32;35334;-92
2021/04/15 04:58:10;;;;;;;;;;;;;;;13.63;36.03;100510.06;4389625;32;32758;-92
2021/04/15 05:00:47;;;;;;;;;;;;;;;14.05;35.17;100518.34;4400424;32;32488;-93
2021/04/15 05:03:22;;;;;;;;;;;;;;;14.05;35.33;100519.19;4386869;32;32830;-93
2021/04/15 05:06:00;;;;;;;;;;;;;;;14.00;35.30;100514.13;4386595;32;32677;-93
2021/04/15 05:08:29;;;;;;;;;;;;;;;13.69;35.70;100515.09;4386707;32;32677;-93
2021/04/15 05:10:56;;;;;;;;;;;;;;;14.00;35.17;100511.50;4386531;32;31787;-92
2021/04/15 05:13:24;;;;;;;;;;;;;;;14.35;34.45;100513.84;4402054;32;33750;-93
2021/04/15 05:15:55;;;;;;;;;;;;;;;14.11;34.93;100508.50;4393351;32;32846;-92
2021/04/15 05:18:23;;;;;;;;;;;;;;;14.04;35.12;100509.62;4392312;32;34388;-93
2021/04/15 05:20:53;;;;;;;;;;;;;;;13.88;35.27;100511.91;4391872;32;32356;-93
2021/04/15 05:23:25;;;;;;;;;;;;;;;14.47;34.13;100508.16;4379912;32;32860;-93
2021/04/15 05:26:02;;;;;;;;;;;;;;;14.03;35.03;100500.06;4394075;32;32654;-92
2021/04/15 05:28:30;;;;;;;;;;;;;;;13.79;35.28;100507.81;4394832;32;33829;-93
2021/04/15 05:30:58;;;;;;;;;;;;;;;14.01;35.06;100507.09;4393256;32;33031;-95
2021/04/15 05:33:27;;;;;;;;;;;;;;;13.78;35.37;100510.47;4385607;32;32503;-92
2021/04/15 05:36:05;;;;;;;;;;;;;;;13.71;35.64;100507.19;4396662;32;33302;-89
2021/04/15 05:38:44;;;;;;;;;;;;;;;14.01;35.13;100514.97;4396226;32;34582;-89
2021/04/15 05:41:17;;;;;;;;;;;;;;;13.78;35.42;100515.72;4396164;32;31877;-89
2021/04/15 05:43:47;;;;;;;;;;;;;;;13.86;35.10;100509.31;4397439;32;33612;-88
2021/04/15 05:46:25;;;;;;;;;;;;;;;13.03;36.98;100517.91;4386480;32;33133;-85
2021/04/15 05:48:56;;;;;;;;;;;;;;;12.59;37.91;100514.78;4384879;32;32816;-90
2021/04/15 05:51:30;;;;;;;;;;;;;;;12.03;39.10;100520.53;4397805;32;32948;-90
2021/04/15 05:53:59;;;;;;;;;;;;;;;13.53;36.11;100517.34;4407990;32;34241;-90
2021/04/15 05:56:29;;;;;;;;;;;;;;;12.64;37.94;100517.25;4383706;32;32932;-91
2021/04/15 05:58:59;;;;;;;;;;;;;;;12.65;37.88;100516.38;4383574;32;32742;-91
2021/04/15 06:01:29;;;;;;;;;;;;;;;12.80;37.57;100512.47;4408803;32;32881;-89
2021/04/15 06:04:01;;;;;;;;;;;;;;;12.91;37.33;100513.03;4395519;32;32897;-90
2021/04/15 06:06:29;;;;;;;;;;;;;;;12.28;38.45;100512.94;4383551;32;34000;-91
2021/04/15 06:08:57;;;;;;;;;;;;;;;13.13;36.74;100507.19;4383357;32;32818;-91
2021/04/15 06:11:43;;;;;;;;;;;;;;;12.44;37.99;100508.19;4409078;32;33207;-91
2021/04/15 06:14:18;;;;;;;;;;;;;;;13.15;36.67;100503.62;4396005;32;33243;-91
2021/04/15 06:16:47;;;;;;;;;;;;;;;13.78;35.43;100507.84;4380513;32;34157;-89
2021/04/15 06:19:16;;;;;;;;;;;;;;;13.13;36.53;100505.41;4393249;32;32775;-93
2021/04/15 06:21:52;;;;;;;;;;;;;;;12.96;37.09;100505.03;4394425;32;32345;-93
2021/04/15 06:24:22;;;;;;;;;;;;;;;13.09;36.80;100501.16;4382112;32;32556;-93
2021/04/15 06:26:50;;;;;;;;;;;;;;;13.20;36.56;100501.72;4394904;32;33211;-93
2021/04/15 06:29:27;;;;;;;;;;;;;;;12.53;37.45;100497.47;4396765;32;33772;-93
2021/04/15 06:31:58;;;;;;;;;;;;;;;12.85;37.24;100507.97;4395841;32;31953;-92
2021/04/15 06:34:27;;;;;;;;;;;;;;;13.13;36.54;100496.72;4381759;32;33050;-92
2021/04/15 06:37:02;;;;;;;;;;;;;;;13.12;36.68;100495.00;4396095;32;34377;-93
2021/04/15 06:39:35;;;;;;;;;;;;;;;13.08;36.54;100493.38;4407110;32;34569;-92
2021/04/15 06:42:04;;;;;;;;;;;;;;;13.11;36.56;100490.66;4394735;32;32932;-92
2021/04/15 06:44:46;;;;;;;;;;;;;;;12.57;37.57;100495.66;4406940;32;32753;-93
2021/04/15 06:47:20;;;;;;;;;;;;;;;13.03;36.84;100485.66;4385023;32;33165;-92
2021/04/15 06:50:06;;;;;;;;;;;;;;;12.43;38.03;100490.81;4374875;32;891096;-92
2021/04/15 06:52:46;;;;;;;;;;;;;;;12.49;37.65;100492.41;4403694;32;33156;-93
2021/04/15 06:55:20;;;;;;;;;;;;;;;12.98;36.73;100495.41;4401870;32;33332;-93
2021/04/15 06:58:08;;;;;;;;;;;;;;;12.31;38.37;100505.06;4398234;32;32762;-93
2021/04/15 07:00:54;;;;;;;;;;;;;;;11.97;39.06;100495.44;4387414;32;32876;-94
2021/04/15 07:03:21;;;;;;;;;;;;;;;12.62;37.70;100512.06;4407576;32;33063;-90
2021/04/15 07:05:54;;;;;;;;;;;;;;;12.53;38.37;100507.09;4392814;32;32987;-90
2021/04/15 07:08:39;;;;;;;;;;;;;;;12.88;37.51;100510.47;4405725;32;33985;-91
2021/04/15 07:11:06;;;;;;;;;;;;;;;12.83;37.49;100508.00;4405566;32;33171;-91
2021/04/15 07:13:46;;;;;;;;;;;;;;;13.63;36.34;100519.69;4405331;32;32767;-92
2021/04/15 07:16:16;;;;;;;;;;;;;;;13.05;36.83;100506.53;4393060;32;33284;-93
2021/04/15 07:18:57;;;;;;;;;;;;;;;13.12;36.93;100510.69;4406845;32;33959;-91
2021/04/15 07:21:44;;;;;;;;;;;;;;;13.44;36.08;100507.16;4393662;32;33402;-92
2021/04/15 07:24:31;;;;;;;;;;;;;;;12.92;37.04;100514.72;4393380;32;32592;-90
2021/04/15 07:27:26;;;;;;;;;;;;;;;13.09;36.61;100510.78;4392694;32;32869;-91
2021/04/15 07:30:02;;;;;;;;;;;;;;;13.89;35.03;100502.28;4406710;32;34584;-93
2021/04/15 07:32:30;;;;;;;;;;;;;;;13.32;36.34;100513.59;4392886;32;32715;-91
2021/04/15 07:35:18;;;;;;;;;;;;;;;13.43;36.47;100509.78;4394617;32;32195;-92
2021/04/15 07:38:12;;;;;;;;;;;;;;;13.92;35.58;100512.63;4393001;32;32662;-91
2021/04/15 07:40:45;;;;;;;;;;;;;;;14.06;35.31;100512.19;4391492;32;33793;-91
2021/04/15 07:43:13;;;;;;;;;;;;;;;13.63;35.81;100512.66;4380334;32;32930;-90
2021/04/15 07:46:00;;;;;;;;;;;;;;;14.02;35.06;100524.53;4404732;32;33150;-93
2021/04/15 07:48:29;;;;;;;;;;;;;;;14.10;34.95;100526.91;4381634;32;33332;-91
2021/04/15 07:51:17;;;;;;;;;;;;;;;13.79;34.82;100520.06;4391900;32;33094;-92
2021/04/15 07:53:56;;;;;;;;;;;;;;;14.14;34.46;100520.66;4394840;32;33014;-91
2021/04/15 07:56:37;;;;;;;;;;;;;;;14.03;34.64;100532.34;4394722;32;33403;-91
2021/04/15 07:59:19;;;;;;;;;;;;;;;14.11;34.22;100521.63;4394861;32;33824;-90
2021/04/15 08:02:05;;;;;;;;;;;;;;;14.02;34.28;100528.00;4408602;32;32735;-93
2021/04/15 08:04:52;;;;;;;;;;;;;;;14.33;33.79;100519.13;4406633;32;33986;-92
2021/04/15 08:07:38;;;;;;;;;;;;;;;14.27;34.14;100519.34;4393457;32;32081;-90
2021/04/15 08:10:25;;;;;;;;;;;;;;;14.47;34.27;100521.28;4409010;32;34750;-90
2021/04/15 08:13:02;;;;;;;;;;;;;;;14.39;34.47;100519.84;4395055;32;33961;-91
2021/04/15 08:15:57;;;;;;;;;;;;;;;14.59;33.44;100516.53;4404592;32;32513;-91
2021/04/15 08:18:41;;;;;;;;;;;;;;;14.77;33.08;100525.53;4405818;32;33044;-92
2021/04/15 08:21:27;;;;;;;;;;;;;;;15.01;32.70;100523.75;4404738;32;34010;-91
2021/04/15 08:24:00;;;;;;;;;;;;;;;15.11;32.85;100521.66;4385936;32;33312;-93
2021/04/15 08:26:35;;;;;;;;;;;;;;;14.44;34.60;100520.50;4400296;32;34323;-92
2021/04/15 08:29:05;;;;;;;;;;;;;;;14.22;34.95;100525.66;4395851;32;32302;-90
2021/04/15 08:31:48;;;;;;;;;;;;;;;14.58;33.82;100531.38;4396631;32;33803;-91
2021/04/15 08:34:22;;;;;;;;;;;;;;;14.28;34.56;100525.41;4410627;32;33813;-93
2021/04/15 08:37:02;;;;;;;;;;;;;;;14.72;34.04;100530.94;4398425;32;32778;-93
2021/04/15 08:39:33;;;;;;;;;;;;;;;14.38;34.60;100526.00;4397913;32;32404;-93
2021/04/15 08:42:05;;;;;;;;;;;;;;;14.65;34.01;100534.69;4386179;32;32928;-93
2021/04/15 08:44:35;;;;;;;;;;;;;;;14.90;33.43;100529.41;4386514;32;34178;-93
2021/04/15 08:47:14;;;;;;;;;;;;;;;14.28;35.15;100531.53;4398895;32;32865;-95
2021/04/15 08:49:47;;;;;;;;;;;;;;;15.03;33.59;100525.41;4398605;32;32105;-92
2021/04/15 08:52:34;;;;;;;;;;;;;;;13.46;37.25;100531.50;4399020;32;33558;-94
2021/04/15 08:55:11;;;;;;;;;;;;;;;15.02;34.09;100536.84;4398495;32;32683;-92
2021/04/15 08:57:52;;;;;;;;;;;;;;;14.50;34.55;100531.63;4385760;32;33256;-92
2021/04/15 09:00:26;;;;;;;;;;;;;;;14.87;33.67;100529.53;4410619;32;33002;-94
2021/04/15 09:03:07;;;;;;;;;;;;;;;15.56;32.88;100535.75;4398036;32;32958;-94
2021/04/15 09:05:54;;;;;;;;;;;;;;;15.39;33.54;100533.75;4385401;32;33371;-95
2021/04/15 09:08:33;;;;;;;;;;;;;;;14.64;34.51;100533.84;4384886;32;32466;-93
2021/04/15 09:11:18;;;;;;;;;;;;;;;15.02;33.73;100534.22;4385926;32;32267;-94
2021/04/15 09:13:52;;;;;;;;;;;;;;;14.45;36.13;100530.97;4384970;32;33193;-95
2021/04/15 09:16:35;;;;;;;;;;;;;;;15.29;34.02;100536.72;4397502;32;34651;-93
2021/04/15 09:19:11;;;;;;;;;;;;;;;15.31;33.02;100534.88;4397189;32;33984;-94
2021/04/15 09:21:55;;;;;;;;;;;;;;;15.66;32.83;100539.69;4386107;32;32150;-95
2021/04/15 09:24:31;;;;;;;;;;;;;;;15.96;32.43;100531.53;4384963;32;33233;-94
2021/04/15 09:27:21;;;;;;;;;;;;;;;15.53;32.38;100541.97;4384729;32;34401;-94
2021/04/15 09:29:48;;;;;;;;;;;;;;;15.62;32.00;100535.47;4397974;32;33014;-92
2021/04/15 09:32:18;;;;;;;;;;;;;;;15.80;31.97;100547.03;4410894;32;33070;-95
2021/04/15 09:34:49;;;;;;;;;;;;;;;15.72;33.56;100539.47;4397507;32;33950;-94
2021/04/15 09:37:29;;;;;;;;;;;;;;;15.97;31.77;100544.63;4384951;32;33462;-94
2021/04/15 09:40:03;;;;;;;;;;;;;;;15.49;32.47;100548.25;4397163;32;34173;-94
2021/04/15 09:42:46;;;;;;;;;;;;;;;15.86;32.13;100531.03;4384981;32;32550;-94
2021/04/15 09:45:32;;;;;;;;;;;;;;;16.16;31.59;100539.44;4397032;32;32636;-94
2021/04/15 09:48:19;;;;;;;;;;;;;;;15.52;32.54;100535.84;4420053;32;33961;-94
2021/04/15 09:50:54;;;;;;;;;;;;;;;15.57;31.97;100535.66;4411698;32;33259;-93
2021/04/15 09:53:29;;;;;;;;;;;;;;;15.40;32.69;100535.47;4399862;32;33416;-92
2021/04/15 09:56:27;;;;;;;;;;;;;;;15.30;32.96;100535.81;4411040;32;33748;-94
2021/04/15 09:59:11;;;;;;;;;;;;;;;15.91;31.97;100530.88;4346200;32;33149;-91
2021/04/15 10:01:40;;;;;;;;;;;;;;;15.57;31.90;100527.78;4398078;32;32773;-95
2021/04/15 10:04:11;;;;;;;;;;;;;;;15.68;31.83;100530.84;4385895;32;32599;-94
2021/04/15 10:06:45;;;;;;;;;;;;;;;15.23;32.95;100539.56;4398318;32;32799;-93
2021/04/15 10:09:20;;;;;;;;;;;;;;;14.62;33.18;100522.50;4387534;32;33336;-92
2021/04/15 10:11:51;;;;;;;;;;;;;;;14.40;34.02;100524.16;4399518;32;32690;-90
2021/04/15 10:14:30;;;;;;;;;;;;;;;14.22;34.23;100521.25;4372727;32;32361;-92
2021/04/15 10:17:09;;;;;;;;;;;;;;;14.55;33.89;100518.37;4383645;32;33315;-94
2021/04/15 10:19:41;;;;;;;;;;;;;;;14.71;34.17;100515.25;4384759;32;33109;-91
2021/04/15 10:22:12;;;;;;;;;;;;;;;14.75;33.96;100517.72;4396623;32;32457;-92
2021/04/15 10:24:47;;;;;;;;;;;;;;;15.21;33.19;100515.16;4397094;32;31985;-96
2021/04/15 10:27:19;;;;;;;;;;;;;;;14.74;34.11;100513.38;4384903;32;33073;-92
2021/04/15 10:30:05;;;;;;;;;;;;;;;15.22;33.24;100511.59;4396901;32;34358;-94
2021/04/15 10:32:36;;;;;;;;;;;;;;;15.27;32.80;100514.91;4397110;32;32451;-93
2021/04/15 10:35:15;;;;;;;;;;;;;;;15.46;32.58;100508.97;4385238;32;31902;-94
2021/04/15 10:37:52;;;;;;;;;;;;;;;14.79;33.05;100495.69;4384238;32;33378;-93
2021/04/15 10:40:38;;;;;;;;;;;;;;;15.35;32.10;100509.38;4397476;32;32994;-93
2021/04/15 10:43:11;;;;;;;;;;;;;;;15.28;31.89;100508.75;4384470;32;33876;-94
2021/04/15 10:45:47;;;;;;;;;;;;;;;15.47;32.05;100502.78;4411019;32;33192;-93
2021/04/15 10:48:33;;;;;;;;;;;;;;;15.48;31.55;100501.87;4398810;32;32775;-93
2021/04/15 10:51:05;;;;;;;;;;;;;;;15.60;31.48;100497.94;4409325;32;34188;-93
2021/04/15 10:53:35;;;;;;;;;;;;;;;15.74;31.21;100486.84;4396823;32;32388;-92
2021/04/15 10:56:04;;;;;;;;;;;;;;;16.32;30.29;100483.59;4396815;32;32609;-94
2021/04/15 10:58:35;;;;;;;;;;;;;;;16.17;30.49;100493.84;4384692;32;33045;-95
2021/04/15 11:01:18;;;;;;;;;;;;;;;16.43;29.65;100481.34;4386435;32;33053;-94
2021/04/15 11:03:46;;;;;;;;;;;;;;;16.98;29.05;100479.88;4384190;32;32805;-95
2021/04/15 11:06:34;;;;;;;;;;;;;;;16.52;31.55;100486.19;4384464;32;33143;-94
2021/04/15 11:09:14;;;;;;;;;;;;;;;15.84;31.11;100504.00;4396619;32;33296;-94
2021/04/15 11:11:57;;;;;;;;;;;;;;;16.52;32.48;100501.16;4397399;32;33549;-94
2021/04/15 11:14:24;;;;;;;;;;;;;;;15.97;35.85;100522.75;4408864;32;34291;-88
2021/04/15 11:16:52;;;;;;;;;;;;;;;14.27;39.89;100514.09;4395394;32;33507;-88
2021/04/15 11:19:22;;;;;;;;;;;;;;;14.87;38.74;100513.78;4394648;32;33032;-86
2021/04/15 11:21:53;;;;;;;;;;;;;;;15.14;38.51;100506.69;4409822;32;33105;-86
2021/04/15 11:24:27;;;;;;;;;;;;;;;14.06;40.94;100517.44;4385883;32;33269;-87
2021/04/15 11:26:56;;;;;;;;;;;;;;;13.35;42.83;100521.34;4393796;32;32309;-94
2021/04/15 11:29:35;;;;;;;;;;;;;;;13.85;39.05;100514.59;4395176;32;32706;-94
2021/04/15 11:32:23;;;;;;;;;;;;;;;14.38;39.38;100510.25;4400288;32;33410;-93
2021/04/15 11:35:08;;;;;;;;;;;;;;;14.63;39.00;100505.00;4400356;32;32933;-93
2021/04/15 11:37:37;;;;;;;;;;;;;;;14.60;40.23;100505.09;4410792;32;32547;-93
2021/04/15 11:40:19;;;;;;;;;;;;;;;15.02;37.79;100502.75;4385538;32;33884;-93
2021/04/15 11:42:47;;;;;;;;;;;;;;;14.90;38.55;100491.84;4410845;32;34617;-93
2021/04/15 11:45:25;;;;;;;;;;;;;;;14.63;37.84;100491.91;4385480;32;32856;-93
2021/04/15 11:48:14;;;;;;;;;;;;;;;14.92;37.67;100490.00;4410140;32;31965;-93
2021/04/15 11:50:41;;;;;;;;;;;;;;;14.45;38.63;100493.38;4387221;32;33126;-93
2021/04/15 11:53:27;;;;;;;;;;;;;;;14.70;37.37;100501.28;4397833;32;33111;-93
2021/04/15 11:56:13;;;;;;;;;;;;;;;14.73;36.50;100492.44;4397163;32;32981;-93
2021/04/15 11:58:41;;;;;;;;;;;;;;;15.17;35.91;100493.44;4397212;32;31923;-94
2021/04/15 12:01:10;;;;;;;;;;;;;;;14.76;37.23;100487.94;4397473;32;32865;-94
2021/04/15 12:03:52;;;;;;;;;;;;;;;14.76;36.81;100487.06;4397174;32;33245;-93
2021/04/15 12:06:20;;;;;;;;;;;;;;;14.60;36.58;100484.13;4385036;32;32884;-92
2021/04/15 12:08:48;;;;;;;;;;;;;;;14.79;38.55;100484.37;4397520;32;32129;-93
2021/04/15 12:11:21;;;;;;;;;;;;;;;15.06;37.48;100487.72;4397284;32;34087;-93
2021/04/15 12:13:54;;;;;;;;;;;;;;;15.14;34.52;100490.06;4386490;32;32722;-93
2021/04/15 12:16:30;;;;;;;;;;;;;;;15.49;33.51;100482.59;4397326;32;34047;-92
2021/04/15 12:19:10;;;;;;;;;;;;;;;15.35;34.46;100483.97;4384601;32;33116;-93
2021/04/15 12:28:11;;;;;;;;;;;;;;;14.76;33.21;100480.09;4408319;32;34802;-92
2021/04/15 12:30:39;;;;;;;;;;;;;;;15.67;32.98;100473.94;4370849;32;33226;-92
2021/04/15 12:33:18;;;;;;;;;;;;;;;16.37;31.31;100473.75;4370037;32;32986;-92
2021/04/15 12:35:55;;;;;;;;;;;;;;;15.88;30.70;100478.47;4382710;32;34180;-94
2021/04/15 12:38:27;;;;;;;;;;;;;;;16.18;29.60;100477.16;4381788;32;34124;-93
2021/04/15 12:41:00;;;;;;;;;;;;;;;15.89;29.29;100477.50;4382186;32;31997;-94
2021/04/15 12:43:37;;;;;;;;;;;;;;;16.72;28.41;100478.38;4370852;32;33354;-93
2021/04/15 12:46:11;;;;;;;;;;;;;;;17.18;27.70;100471.03;4369568;32;33805;-93
2021/04/15 12:48:43;;;;;;;;;;;;;;;17.01;31.16;100477.06;4381771;32;32804;-92
2021/04/15 12:51:12;;;;;;;;;;;;;;;16.69;29.57;100480.19;4393795;32;32302;-91
2021/04/15 12:53:41;;;;;;;;;;;;;;;16.48;28.74;100470.63;4384252;32;32968;-92
2021/04/15 12:56:09;;;;;;;;;;;;;;;16.63;28.80;100475.22;4385386;32;33373;-93
2021/04/15 12:58:37;;;;;;;;;;;;;;;15.76;29.62;100469.25;4385861;32;33666;-92
2021/04/15 13:01:05;;;;;;;;;;;;;;;16.67;28.67;100474.16;4385113;32;31970;-93
2021/04/15 13:03:37;;;;;;;;;;;;;;;16.73;28.00;100469.56;4385272;32;34583;-93
2021/04/15 13:06:15;;;;;;;;;;;;;;;16.53;28.04;100471.28;4386065;32;33101;-92
2021/04/15 13:08:43;;;;;;;;;;;;;;;16.05;27.20;100464.59;4386164;32;33021;-93
2021/04/15 13:11:10;;;;;;;;;;;;;;;16.26;27.22;100468.94;4396715;32;33120;-93
2021/04/15 13:13:38;;;;;;;;;;;;;;;16.75;26.67;100463.31;4396979;32;33321;-92
2021/04/15 13:16:06;;;;;;;;;;;;;;;16.68;27.09;100467.97;4397173;32;34449;-92
2021/04/15 13:18:37;;;;;;;;;;;;;;;16.54;27.38;100451.97;4385098;32;33169;-93